Terminal Aerodrome Forecast
Issued by NWS

Home | Current Version | Previous Version | Text Only | Print | Product List | Glossary On
Versions: 1 2 3 4 5 6 7 8 9 10 11 12 13 14 15
732
FTUS43 KDTX 241735
TAFDET
TAF
KDET 241735Z 2418/2518 23018G28KT P6SM SCT050 BKN080
     FM242200 23014G24KT P6SM OVC035
     FM250100 23013KT P6SM OVC020
     FM250500 06006KT 4SM -RA BR OVC012
     FM250700 06010KT 2SM -RA BR OVC008
     FM250900 07007KT 1 1/2SM -RA BR OVC004
     FM251500 09010KT 4SM -DZ BR OVC008=

USA.gov is the U.S. government's official web portal to all federal, state and local government web resources and services.